Time;durP1;ratioP1;P1;durP2;ratioP2;P2;SDS_P1;SDS_P2;PMS_P1;PMS_P2;Temp;Humidity;BMP_temperature;BMP_pressure;BME280_temperature;BME280_humidity;BME280_pressure;Samples;Min_cycle;Max_cycle;Signal;HPM_P1;HPM_P2
2023/07/30 00:00:33;;;;;;;;;;;;;;;-145.06;100.00;60892.56;4727491;29;19919;-91
2023/07/30 00:03:12;;;;;;;;;;;;;;;-145.06;100.00;60892.56;4707297;29;19920;-93
2023/07/30 00:05:51;;;;;;;;;;;;;;;-145.06;100.00;60892.56;4727475;29;19920;-91
2023/07/30 00:08:30;;;;;;;;;;;;;;;-145.06;100.00;60892.56;4724499;29;19915;-92
2023/07/30 00:11:09;;;;;;;;;;;;;;;-145.06;100.00;60892.56;4739755;29;19927;-90
2023/07/30 00:13:48;;;;;;;;;;;;;;;-145.06;100.00;60892.56;4732441;29;19919;-92
2023/07/30 00:16:30;;;;;;;;;;;;;;;-145.06;100.00;60892.56;4726169;29;19919;-91
2023/07/30 00:19:10;;;;;;;;;;;;;;;-145.06;100.00;60892.56;4727483;29;19923;-90
2023/07/30 00:21:49;;;;;;;;;;;;;;;-145.06;100.00;60892.56;4737157;29;19959;-91
2023/07/30 00:24:28;;;;;;;;;;;;;;;-145.06;100.00;60892.56;4737546;29;19920;-93
2023/07/30 00:27:10;;;;;;;;;;;;;;;-145.06;100.00;60892.56;4713092;29;19915;-90
2023/07/30 00:29:49;;;;;;;;;;;;;;;-145.06;100.00;60892.56;4725182;29;19927;-89
2023/07/30 00:32:28;;;;;;;;;;;;;;;-145.06;100.00;60892.56;4726097;29;19955;-91
2023/07/30 00:35:07;;;;;;;;;;;;;;;-145.06;100.00;60892.56;4732083;29;19920;-91
2023/07/30 00:37:46;;;;;;;;;;;;;;;18.63;100.00;60892.56;4716046;29;19915;-90
2023/07/30 00:40:25;;;;;;;;;;;;;;;-145.06;100.00;60892.56;4703294;29;19924;-91
2023/07/30 00:43:04;;;;;;;;;;;;;;;-145.06;100.00;60892.56;4723591;29;19919;-90
2023/07/30 00:45:44;;;;;;;;;;;;;;;-145.06;100.00;60892.56;4715730;29;20647;-92
2023/07/30 00:48:26;;;;;;;;;;;;;;;18.80;100.00;60892.56;4728854;29;20198;-91
2023/07/30 00:51:06;;;;;;;;;;;;;;;-145.06;100.00;60892.56;4712492;29;19923;-91
2023/07/30 00:53:45;;;;;;;;;;;;;;;18.45;100.00;60892.56;4717741;29;19920;-92
2023/07/30 00:56:24;;;;;;;;;;;;;;;-145.06;100.00;60892.56;4732326;29;19967;-91
2023/07/30 00:59:03;;;;;;;;;;;;;;;18.42;100.00;60892.56;4712191;29;20623;-92
2023/07/30 01:01:42;;;;;;;;;;;;;;;-145.06;100.00;60892.56;4730762;29;19919;-93
2023/07/30 01:04:21;;;;;;;;;;;;;;;-145.06;100.00;60892.56;4725049;29;19915;-91
2023/07/30 01:07:03;;;;;;;;;;;;;;;18.37;100.00;60892.56;4726772;29;20371;-92
2023/07/30 01:09:42;;;;;;;;;;;;;;;-145.06;100.00;60892.56;4719542;29;19920;-91
2023/07/30 01:12:22;;;;;;;;;;;;;;;18.33;100.00;60892.56;4731988;29;19951;-92
2023/07/30 01:15:00;;;;;;;;;;;;;;;18.32;100.00;60892.56;4725260;29;19920;-91
2023/07/30 01:17:39;;;;;;;;;;;;;;;18.31;100.00;60892.56;4739002;29;19923;-91
2023/07/30 01:20:18;;;;;;;;;;;;;;;18.30;100.00;60892.56;4712286;29;19915;-92
2023/07/30 01:22:58;;;;;;;;;;;;;;;18.29;100.00;60892.56;4721864;29;19919;-91
2023/07/30 01:25:37;;;;;;;;;;;;;;;18.29;100.00;60892.56;4724808;29;20501;-92
2023/07/30 01:28:18;;;;;;;;;;;;;;;18.31;100.00;60892.56;4732604;29;19923;-91
2023/07/30 01:30:58;;;;;;;;;;;;;;;18.31;100.00;60892.56;4722137;29;20374;-92
2023/07/30 01:33:39;;;;;;;;;;;;;;;18.31;100.00;60892.56;4708563;29;19920;-92
2023/07/30 01:36:19;;;;;;;;;;;;;;;-145.06;100.00;60892.56;4714915;29;19916;-90
2023/07/30 01:38:59;;;;;;;;;;;;;;;18.32;100.00;104794.97;4715732;29;19919;-89
2023/07/30 01:41:38;;;;;;;;;;;;;;;18.32;100.00;60892.56;4723634;29;19978;-91
2023/07/30 01:44:17;;;;;;;;;;;;;;;18.32;100.00;60892.56;4728657;29;19923;-91
2023/07/30 01:46:59;;;;;;;;;;;;;;;18.30;100.00;81616.88;4738533;29;19962;-91
2023/07/30 01:49:38;;;;;;;;;;;;;;;18.29;100.00;60892.56;4712371;29;19919;-92
2023/07/30 01:52:17;;;;;;;;;;;;;;;18.29;100.00;60892.56;4724790;29;19954;-91
2023/07/30 01:54:58;;;;;;;;;;;;;;;18.28;100.00;60892.56;4728721;29;19915;-90
2023/07/30 01:57:37;;;;;;;;;;;;;;;18.28;100.00;60892.56;4720215;29;19916;-91
2023/07/30 02:00:16;;;;;;;;;;;;;;;18.27;100.00;60892.56;4729834;29;20267;-92
2023/07/30 02:02:58;;;;;;;;;;;;;;;18.27;100.00;60892.56;4730520;29;19928;-92
2023/07/30 02:05:37;;;;;;;;;;;;;;;18.27;100.00;60892.56;4733075;29;19951;-92
2023/07/30 02:08:16;;;;;;;;;;;;;;;18.27;100.00;60892.56;4719258;29;19915;-93
2023/07/30 02:10:58;;;;;;;;;;;;;;;18.26;100.00;60892.56;4732551;29;19924;-93
2023/07/30 02:13:38;;;;;;;;;;;;;;;18.25;100.00;60892.56;4708345;29;19916;-92
2023/07/30 02:16:17;;;;;;;;;;;;;;;18.24;100.00;60892.56;4716715;29;19927;-92
2023/07/30 02:18:56;;;;;;;;;;;;;;;18.22;100.00;60892.56;4721989;29;19920;-92
2023/07/30 02:21:36;;;;;;;;;;;;;;;18.23;100.00;104794.97;4733635;29;20384;-92
2023/07/30 02:24:16;;;;;;;;;;;;;;;18.23;100.00;60892.56;4725100;29;20260;-91
2023/07/30 02:26:55;;;;;;;;;;;;;;;18.23;100.00;60892.56;4711828;29;19915;-92
2023/07/30 02:29:33;;;;;;;;;;;;;;;18.23;100.00;60892.56;4728096;29;20404;-90
2023/07/30 02:32:13;;;;;;;;;;;;;;;18.22;100.00;60892.56;4729764;29;19919;-91
2023/07/30 02:34:52;;;;;;;;;;;;;;;18.23;100.00;104794.97;4698515;29;19920;-91
2023/07/30 02:37:30;;;;;;;;;;;;;;;18.25;100.00;60892.56;4727683;29;19919;-91
2023/07/30 02:40:10;;;;;;;;;;;;;;;18.26;100.00;60892.56;4737043;29;19924;-92
2023/07/30 02:42:49;;;;;;;;;;;;;;;18.26;100.00;60892.56;4729799;29;19923;-92
2023/07/30 02:45:28;;;;;;;;;;;;;;;18.27;100.00;60892.56;4732435;29;20350;-91
2023/07/30 02:48:10;;;;;;;;;;;;;;;-145.06;100.00;60892.56;4736075;29;19951;-92
2023/07/30 02:50:49;;;;;;;;;;;;;;;18.26;100.00;104794.97;4729377;29;20275;-91
2023/07/30 02:53:28;;;;;;;;;;;;;;;18.27;100.00;60892.56;4734990;29;19915;-92
2023/07/30 02:56:10;;;;;;;;;;;;;;;18.26;100.00;60892.56;4736768;29;19919;-90
2023/07/30 02:58:49;;;;;;;;;;;;;;;18.24;100.00;60892.56;4731315;29;19920;-92
2023/07/30 03:01:28;;;;;;;;;;;;;;;18.25;100.00;60892.56;4720949;29;19924;-92
2023/07/30 03:04:10;;;;;;;;;;;;;;;18.24;100.00;60892.56;4739482;29;19916;-93
2023/07/30 03:06:49;;;;;;;;;;;;;;;18.21;100.00;60892.56;4730178;29;19915;-90
2023/07/30 03:09:28;;;;;;;;;;;;;;;18.20;100.00;60892.56;4717246;29;20441;-91
2023/07/30 03:12:07;;;;;;;;;;;;;;;18.20;100.00;60892.56;4733779;29;20323;-92
2023/07/30 03:14:46;;;;;;;;;;;;;;;18.19;100.00;60892.56;4711557;29;19915;-92
2023/07/30 03:17:25;;;;;;;;;;;;;;;-145.06;100.00;60892.56;4729001;29;19959;-93
2023/07/30 03:20:04;;;;;;;;;;;;;;;18.19;100.00;60892.56;4702889;29;20354;-91
2023/07/30 03:22:43;;;;;;;;;;;;;;;18.19;100.00;60892.56;4729702;29;20432;-91
2023/07/30 03:25:22;;;;;;;;;;;;;;;18.18;100.00;60892.56;4728530;29;20530;-91
2023/07/30 03:28:01;;;;;;;;;;;;;;;18.17;100.00;60892.56;4729826;29;19958;-92
2023/07/30 03:30:40;;;;;;;;;;;;;;;-145.06;100.00;60892.56;4729058;29;19955;-92
2023/07/30 03:33:19;;;;;;;;;;;;;;;-145.06;100.00;60892.56;4728104;29;19963;-92
2023/07/30 03:36:01;;;;;;;;;;;;;;;-145.06;100.00;60892.56;4736123;29;20287;-92
2023/07/30 03:38:41;;;;;;;;;;;;;;;-145.06;100.00;60892.56;4735645;29;19915;-94
2023/07/30 03:41:20;;;;;;;;;;;;;;;-145.06;100.00;60892.56;4742840;29;19920;-93
2023/07/30 03:43:59;;;;;;;;;;;;;;;-145.06;100.00;60892.56;4706056;29;20195;-93
2023/07/30 03:46:38;;;;;;;;;;;;;;;-145.06;100.00;60892.56;4724457;29;19916;-92
2023/07/30 03:49:17;;;;;;;;;;;;;;;-145.06;100.00;60892.56;4706711;29;20267;-93
2023/07/30 03:51:56;;;;;;;;;;;;;;;17.95;100.00;60892.56;4728281;29;20524;-91
2023/07/30 03:54:37;;;;;;;;;;;;;;;-145.06;100.00;60892.56;4724674;29;19915;-92
2023/07/30 03:57:16;;;;;;;;;;;;;;;-145.06;100.00;60892.56;4739251;29;19916;-92
2023/07/30 03:59:55;;;;;;;;;;;;;;;-145.06;100.00;60892.56;4732059;29;19924;-89
2023/07/30 04:02:34;;;;;;;;;;;;;;;-145.06;100.00;60892.56;4727035;29;19915;-91
2023/07/30 04:05:13;;;;;;;;;;;;;;;-145.06;100.00;60892.56;4726721;29;19954;-94
2023/07/30 04:07:52;;;;;;;;;;;;;;;-145.06;100.00;60892.56;4726781;29;19919;-92
2023/07/30 04:10:31;;;;;;;;;;;;;;;17.91;100.00;60892.56;4730503;29;20522;-92
2023/07/30 04:13:10;;;;;;;;;;;;;;;-145.06;100.00;60892.56;4714045;29;19915;-90
2023/07/30 04:15:49;;;;;;;;;;;;;;;-145.06;100.00;60892.56;4737030;29;19920;-90
2023/07/30 04:18:28;;;;;;;;;;;;;;;-145.06;100.00;60892.56;4725222;29;19916;-92
2023/07/30 04:21:07;;;;;;;;;;;;;;;-145.06;100.00;60892.56;4722639;29;19919;-92
2023/07/30 04:23:46;;;;;;;;;;;;;;;-145.06;100.00;60892.56;4725422;29;19916;-91
2023/07/30 04:26:25;;;;;;;;;;;;;;;-145.06;100.00;60892.56;4713522;29;20027;-92
2023/07/30 04:29:04;;;;;;;;;;;;;;;-145.06;100.00;60892.56;4714188;29;19915;-91
2023/07/30 04:31:43;;;;;;;;;;;;;;;-145.06;100.00;60892.56;4717240;29;19959;-95
2023/07/30 04:34:22;;;;;;;;;;;;;;;-145.06;100.00;60892.56;4726979;29;19915;-91
2023/07/30 04:37:02;;;;;;;;;;;;;;;-145.06;100.00;60892.56;4726351;29;20283;-93
2023/07/30 04:39:41;;;;;;;;;;;;;;;-145.06;100.00;60892.56;4705063;29;19915;-89
2023/07/30 04:42:20;;;;;;;;;;;;;;;-145.06;100.00;60892.56;4709542;29;20367;-90
2023/07/30 04:44:59;;;;;;;;;;;;;;;-145.06;100.00;60892.56;4734114;29;19958;-91
2023/07/30 04:47:38;;;;;;;;;;;;;;;-145.06;100.00;60892.56;4734279;29;19958;-92
2023/07/30 04:50:17;;;;;;;;;;;;;;;-145.06;100.00;60892.56;4704436;29;20383;-92
2023/07/30 04:53:04;;;;;;;;;;;;;;;-145.06;100.00;60892.56;4726027;29;20451;-91
2023/07/30 04:55:43;;;;;;;;;;;;;;;-145.06;100.00;60892.56;4727664;29;19915;-92
2023/07/30 04:58:22;;;;;;;;;;;;;;;-145.06;100.00;60892.56;4709846;29;19923;-90
2023/07/30 05:01:01;;;;;;;;;;;;;;;-145.06;100.00;60892.56;4711537;29;19931;-92
2023/07/30 05:03:40;;;;;;;;;;;;;;;-145.06;100.00;60892.56;4727318;29;20275;-93
2023/07/30 05:06:19;;;;;;;;;;;;;;;-145.06;100.00;60892.56;4727989;29;19924;-94
2023/07/30 05:08:58;;;;;;;;;;;;;;;-145.06;100.00;60892.56;4729488;29;19951;-92
2023/07/30 05:11:37;;;;;;;;;;;;;;;-145.06;100.00;60892.56;4719141;29;19919;-89
2023/07/30 05:14:16;;;;;;;;;;;;;;;-145.06;100.00;60892.56;4728630;29;19919;-92
2023/07/30 05:16:55;;;;;;;;;;;;;;;-145.06;100.00;60892.56;4737090;29;19919;-92
2023/07/30 05:19:34;;;;;;;;;;;;;;;-145.06;100.00;60892.56;4732326;29;19919;-90
2023/07/30 05:22:13;;;;;;;;;;;;;;;-145.06;100.00;60892.56;4738622;29;19916;-92
2023/07/30 05:24:52;;;;;;;;;;;;;;;-145.06;100.00;60892.56;4722640;29;19959;-91
2023/07/30 05:27:33;;;;;;;;;;;;;;;-145.06;100.00;60892.56;4730748;29;20251;-91
2023/07/30 05:30:12;;;;;;;;;;;;;;;-145.06;100.00;60892.56;4714621;29;19920;-90
2023/07/30 05:32:51;;;;;;;;;;;;;;;-145.06;100.00;60892.56;4735972;29;20010;-91
2023/07/30 05:35:33;;;;;;;;;;;;;;;-145.06;100.00;60892.56;4730617;29;20503;-91
2023/07/30 05:38:12;;;;;;;;;;;;;;;-145.06;100.00;60892.56;4727362;29;19919;-92
2023/07/30 05:40:51;;;;;;;;;;;;;;;-145.06;100.00;60892.56;4727641;29;19923;-91
2023/07/30 05:43:30;;;;;;;;;;;;;;;-145.06;100.00;60892.56;4726321;29;19919;-91
2023/07/30 05:46:09;;;;;;;;;;;;;;;-145.06;100.00;60892.56;4714156;29;19919;-91
2023/07/30 05:48:50;;;;;;;;;;;;;;;-145.06;100.00;60892.56;4722627;29;19916;-92
2023/07/30 05:51:32;;;;;;;;;;;;;;;-145.06;100.00;60892.56;4718896;29;19923;-92
2023/07/30 05:54:11;;;;;;;;;;;;;;;-145.06;100.00;60892.56;4709259;29;19919;-92
2023/07/30 05:56:50;;;;;;;;;;;;;;;-145.06;100.00;60892.56;4725488;29;19923;-92
2023/07/30 05:59:29;;;;;;;;;;;;;;;-145.06;100.00;60892.56;4727972;29;20256;-92
2023/07/30 06:02:08;;;;;;;;;;;;;;;-145.06;100.00;60892.56;4735092;29;20009;-92
2023/07/30 06:04:48;;;;;;;;;;;;;;;-145.06;100.00;60892.56;4729310;29;20275;-94
2023/07/30 06:07:27;;;;;;;;;;;;;;;-145.06;100.00;60892.56;4732548;29;19950;-92
2023/07/30 06:10:13;;;;;;;;;;;;;;;-145.06;100.00;60892.56;4731273;29;19919;-91
2023/07/30 06:12:53;;;;;;;;;;;;;;;-145.06;100.00;60892.56;4710834;29;19916;-90
2023/07/30 06:15:32;;;;;;;;;;;;;;;-145.06;100.00;60892.56;4739675;29;19920;-92
2023/07/30 06:18:11;;;;;;;;;;;;;;;-145.06;100.00;60892.56;4709535;29;19927;-92
2023/07/30 06:20:53;;;;;;;;;;;;;;;-145.06;100.00;60892.56;4711553;29;19923;-91
2023/07/30 06:23:35;;;;;;;;;;;;;;;-145.06;100.00;60892.56;4736307;29;19919;-91
2023/07/30 06:26:14;;;;;;;;;;;;;;;-145.06;100.00;60892.56;4738854;29;19915;-91
2023/07/30 06:28:53;;;;;;;;;;;;;;;-145.06;100.00;60892.56;4711805;29;19920;-91
2023/07/30 06:31:32;;;;;;;;;;;;;;;-145.06;100.00;60892.56;4728531;29;19920;-92
2023/07/30 06:34:14;;;;;;;;;;;;;;;-145.06;100.00;60892.56;4723374;29;19923;-91
2023/07/30 06:36:53;;;;;;;;;;;;;;;-145.06;100.00;60892.56;4730165;29;19915;-91
2023/07/30 06:39:31;;;;;;;;;;;;;;;-145.06;100.00;60892.56;4741493;29;19919;-91
2023/07/30 06:42:13;;;;;;;;;;;;;;;-145.06;100.00;60892.56;4720449;29;20624;-90
2023/07/30 06:44:52;;;;;;;;;;;;;;;-145.06;100.00;60892.56;4725441;29;19915;-90
2023/07/30 06:47:31;;;;;;;;;;;;;;;-145.06;100.00;60892.56;4729665;29;20259;-91
2023/07/30 06:50:10;;;;;;;;;;;;;;;-145.06;100.00;60892.56;4741471;29;19971;-91
2023/07/30 06:52:49;;;;;;;;;;;;;;;-145.06;100.00;60892.56;4728269;29;19927;-91
2023/07/30 06:55:28;;;;;;;;;;;;;;;-145.06;100.00;60892.56;4724898;29;19920;-91
2023/07/30 06:58:08;;;;;;;;;;;;;;;17.87;100.00;60892.56;4722791;29;20019;-92
2023/07/30 07:00:47;;;;;;;;;;;;;;;-145.06;100.00;60892.56;4727839;29;19919;-91
2023/07/30 07:03:26;;;;;;;;;;;;;;;17.87;100.00;60892.56;4730150;29;19990;-91
2023/07/30 07:06:05;;;;;;;;;;;;;;;-145.06;100.00;60892.56;4729320;29;19924;-92
2023/07/30 07:08:44;;;;;;;;;;;;;;;-145.06;100.00;60892.56;4722768;29;19919;-92
2023/07/30 07:11:23;;;;;;;;;;;;;;;17.90;100.00;60892.56;4730450;29;19927;-93
2023/07/30 07:14:02;;;;;;;;;;;;;;;-145.06;100.00;60892.56;4732474;29;19919;-93
2023/07/30 07:16:41;;;;;;;;;;;;;;;-145.06;100.00;60892.56;4733291;29;19916;-93
2023/07/30 07:19:20;;;;;;;;;;;;;;;-145.06;100.00;60892.56;4736045;29;20374;-91
2023/07/30 07:21:59;;;;;;;;;;;;;;;-145.06;100.00;60892.56;4732039;29;19923;-92
2023/07/30 07:24:41;;;;;;;;;;;;;;;17.98;100.00;60892.56;4724939;29;19920;-91
2023/07/30 07:27:20;;;;;;;;;;;;;;;-145.06;100.00;60892.56;4724517;29;19927;-91
2023/07/30 07:29:59;;;;;;;;;;;;;;;-145.06;100.00;60892.56;4730548;29;20315;-90
2023/07/30 07:32:41;;;;;;;;;;;;;;;-145.06;100.00;60892.56;4734967;29;19923;-91
2023/07/30 07:35:21;;;;;;;;;;;;;;;-145.06;100.00;60892.56;4732283;29;19963;-92
2023/07/30 07:38:00;;;;;;;;;;;;;;;-145.06;100.00;60892.56;4720624;29;19924;-92
2023/07/30 07:40:48;;;;;;;;;;;;;;;-145.06;100.00;60892.56;4729027;29;19923;-92
2023/07/30 07:43:27;;;;;;;;;;;;;;;-145.06;100.00;60892.56;4726730;29;19919;-92
2023/07/30 07:46:13;;;;;;;;;;;;;;;-145.06;100.00;60892.56;4729944;29;19919;-91
2023/07/30 07:48:52;;;;;;;;;;;;;;;-145.06;100.00;60892.56;4728207;29;19954;-92
2023/07/30 07:51:31;;;;;;;;;;;;;;;-145.06;100.00;60892.56;4739412;29;19923;-93
2023/07/30 07:54:10;;;;;;;;;;;;;;;-145.06;100.00;60892.56;4733303;29;19959;-92
2023/07/30 07:56:49;;;;;;;;;;;;;;;18.03;100.00;60892.56;4715775;29;19920;-93
2023/07/30 07:59:28;;;;;;;;;;;;;;;-145.06;100.00;60892.56;4727814;29;20366;-92
2023/07/30 08:02:07;;;;;;;;;;;;;;;-145.06;100.00;60892.56;4730346;29;20252;-91
2023/07/30 08:04:46;;;;;;;;;;;;;;;18.11;100.00;60892.56;4734093;29;19919;-90
2023/07/30 08:07:25;;;;;;;;;;;;;;;-145.06;100.00;60892.56;4727008;29;20236;-89
2023/07/30 08:10:04;;;;;;;;;;;;;;;-145.06;100.00;60892.56;4727659;29;19927;-89
2023/07/30 08:12:43;;;;;;;;;;;;;;;-145.06;100.00;60892.56;4732385;29;19955;-91
2023/07/30 08:15:22;;;;;;;;;;;;;;;-145.06;100.00;60892.56;4724255;29;19923;-89
2023/07/30 08:18:01;;;;;;;;;;;;;;;-145.06;100.00;60892.56;4727680;29;19919;-90
2023/07/30 08:20:40;;;;;;;;;;;;;;;-145.06;100.00;60892.56;4706218;29;19924;-91
2023/07/30 08:23:19;;;;;;;;;;;;;;;-145.06;100.00;60892.56;4729288;29;19919;-90
2023/07/30 08:25:58;;;;;;;;;;;;;;;-145.06;100.00;60892.56;4715220;29;19920;-92
2023/07/30 08:28:37;;;;;;;;;;;;;;;-145.06;100.00;60892.56;4722379;29;20002;-93
2023/07/30 08:31:16;;;;;;;;;;;;;;;-145.06;100.00;60892.56;4733497;29;20006;-90
2023/07/30 08:33:55;;;;;;;;;;;;;;;-145.06;100.00;60892.56;4730433;29;20386;-91
2023/07/30 08:36:34;;;;;;;;;;;;;;;-145.06;100.00;60892.56;4731846;29;19919;-91
2023/07/30 08:39:13;;;;;;;;;;;;;;;-145.06;100.00;60892.56;4727523;29;19924;-91
2023/07/30 08:41:52;;;;;;;;;;;;;;;-145.06;100.00;60892.56;4722120;29;19916;-90
2023/07/30 08:44:31;;;;;;;;;;;;;;;-145.06;100.00;60892.56;4725615;29;19920;-94
2023/07/30 08:47:12;;;;;;;;;;;;;;;-145.06;100.00;60892.56;4725435;29;19919;-91
2023/07/30 08:49:51;;;;;;;;;;;;;;;-145.06;100.00;60892.56;4723727;29;20022;-90
2023/07/30 08:52:32;;;;;;;;;;;;;;;-145.06;100.00;60892.56;4717506;29;20011;-91
2023/07/30 08:55:11;;;;;;;;;;;;;;;-145.06;100.00;60892.56;4721067;29;19932;-91
2023/07/30 08:57:54;;;;;;;;;;;;;;;-145.06;100.00;60892.56;4712056;29;20651;-91
2023/07/30 09:00:35;;;;;;;;;;;;;;;-145.06;100.00;60892.56;4729940;29;19923;-90
2023/07/30 09:03:15;;;;;;;;;;;;;;;-145.06;100.00;60892.56;4733574;29;20413;-90
2023/07/30 09:05:57;;;;;;;;;;;;;;;-145.06;100.00;60892.56;4714448;29;19915;-91
2023/07/30 09:08:36;;;;;;;;;;;;;;;-145.06;100.00;60892.56;4708749;29;19916;-90
2023/07/30 09:11:15;;;;;;;;;;;;;;;-145.06;100.00;60892.56;4719536;29;19923;-90
2023/07/30 09:13:57;;;;;;;;;;;;;;;-145.06;100.00;60892.56;4726968;29;19920;-90
2023/07/30 09:16:36;;;;;;;;;;;;;;;-145.06;100.00;60892.56;4727057;29;19919;-89
2023/07/30 09:19:18;;;;;;;;;;;;;;;-145.06;100.00;60892.56;4714679;29;19949;-91
2023/07/30 09:21:58;;;;;;;;;;;;;;;-145.06;100.00;60892.56;4730392;29;19915;-90
2023/07/30 09:24:41;;;;;;;;;;;;;;;-145.06;100.00;60892.56;4720361;29;19915;-90
2023/07/30 09:27:22;;;;;;;;;;;;;;;-145.06;100.00;60892.56;4727034;29;19919;-89
2023/07/30 09:30:05;;;;;;;;;;;;;;;-145.06;100.00;60892.56;4730398;29;20011;-91
2023/07/30 09:32:44;;;;;;;;;;;;;;;-145.06;100.00;60892.56;4706731;29;19920;-91
2023/07/30 09:35:27;;;;;;;;;;;;;;;-145.06;100.00;60892.56;4731519;29;19920;-92
2023/07/30 09:38:06;;;;;;;;;;;;;;;-145.06;100.00;60892.56;4726057;29;19954;-92
2023/07/30 09:40:47;;;;;;;;;;;;;;;-145.06;100.00;60892.56;4725186;29;19916;-92
2023/07/30 09:43:32;;;;;;;;;;;;;;;-145.06;100.00;60892.56;4734625;29;19920;-93
2023/07/30 09:46:11;;;;;;;;;;;;;;;-145.06;100.00;60892.56;4731333;29;20378;-91
2023/07/30 09:48:50;;;;;;;;;;;;;;;-145.06;100.00;60892.56;4738880;29;19919;-91
2023/07/30 09:51:29;;;;;;;;;;;;;;;-145.06;100.00;60892.56;4715357;29;19923;-90
2023/07/30 09:54:09;;;;;;;;;;;;;;;-145.06;100.00;60892.56;4727292;29;19916;-91
2023/07/30 09:56:48;;;;;;;;;;;;;;;-145.06;100.00;60892.56;4734912;29;19916;-93
2023/07/30 09:59:27;;;;;;;;;;;;;;;-145.06;100.00;60892.56;4723898;29;19920;-91
2023/07/30 10:02:08;;;;;;;;;;;;;;;19.58;100.00;60892.56;4734663;29;20418;-93
2023/07/30 10:04:49;;;;;;;;;;;;;;;19.58;100.00;60892.56;4728458;29;19920;-90
2023/07/30 10:07:29;;;;;;;;;;;;;;;-145.06;100.00;60892.56;4724460;29;20623;-93
2023/07/30 10:10:09;;;;;;;;;;;;;;;-145.06;100.00;60892.56;4723144;29;19959;-90
2023/07/30 10:12:50;;;;;;;;;;;;;;;-145.06;100.00;60892.56;4734749;29;20263;-91
2023/07/30 10:15:29;;;;;;;;;;;;;;;-145.06;100.00;60892.56;4738907;29;19916;-89
2023/07/30 10:18:08;;;;;;;;;;;;;;;-145.06;100.00;60892.56;4735377;29;20386;-91
2023/07/30 10:20:57;;;;;;;;;;;;;;;-145.06;100.00;60892.56;4732547;29;19916;-91
2023/07/30 10:23:48;;;;;;;;;;;;;;;-145.06;100.00;60892.56;4738473;29;19915;-91
2023/07/30 10:26:37;;;;;;;;;;;;;;;-145.06;100.00;60892.56;4740585;29;20414;-93
2023/07/30 10:29:19;;;;;;;;;;;;;;;-145.06;100.00;60892.56;4731245;29;19946;-92
2023/07/30 10:31:59;;;;;;;;;;;;;;;-145.06;100.00;60892.56;4736903;29;19920;-93
2023/07/30 10:34:57;;;;;;;;;;;;;;;-145.06;100.00;60892.56;4732988;29;19950;-93
2023/07/30 10:37:44;;;;;;;;;;;;;;;20.77;100.00;60892.56;4728338;29;19916;-93
2023/07/30 10:40:23;;;;;;;;;;;;;;;20.83;100.00;60892.56;4713225;29;20002;-92
2023/07/30 10:43:02;;;;;;;;;;;;;;;20.88;100.00;60892.56;4731988;29;20333;-94
2023/07/30 10:45:49;;;;;;;;;;;;;;;20.95;100.00;60892.56;4731696;29;20440;-92
2023/07/30 10:48:32;;;;;;;;;;;;;;;-145.06;100.00;60892.56;4714038;29;20240;-92
2023/07/30 10:51:17;;;;;;;;;;;;;;;-145.06;100.00;60892.56;4706957;29;19924;-93
2023/07/30 10:53:56;;;;;;;;;;;;;;;-145.06;100.00;60892.56;4728524;29;19931;-92
2023/07/30 10:56:40;;;;;;;;;;;;;;;-145.06;100.00;60892.56;4730570;29;19919;-93
2023/07/30 10:59:19;;;;;;;;;;;;;;;-145.06;100.00;60892.56;4736395;29;19954;-92
2023/07/30 11:02:00;;;;;;;;;;;;;;;-145.06;100.00;60892.56;4738004;29;19920;-92
2023/07/30 11:04:39;;;;;;;;;;;;;;;-145.06;100.00;60892.56;4735152;29;19919;-94
2023/07/30 11:07:21;;;;;;;;;;;;;;;-145.06;100.00;60892.56;4740287;29;19915;-93
2023/07/30 11:10:01;;;;;;;;;;;;;;;-145.06;100.00;60892.56;4720580;29;19924;-94
2023/07/30 11:12:40;;;;;;;;;;;;;;;-145.06;100.00;60892.56;4730577;29;19919;-92
2023/07/30 11:15:19;;;;;;;;;;;;;;;-145.06;100.00;60892.56;4720949;29;20318;-92
2023/07/30 11:17:58;;;;;;;;;;;;;;;-145.06;100.00;60892.56;4732212;29;19965;-94
2023/07/30 11:20:37;;;;;;;;;;;;;;;-145.06;100.00;60892.56;4715562;29;20421;-92
2023/07/30 11:23:17;;;;;;;;;;;;;;;-145.06;100.00;60892.56;4729103;29;19916;-93
2023/07/30 11:25:56;;;;;;;;;;;;;;;-145.06;100.00;60892.56;4725363;29;19951;-91
2023/07/30 11:28:39;;;;;;;;;;;;;;;-145.06;100.00;60892.56;4721050;29;19955;-92
2023/07/30 11:31:21;;;;;;;;;;;;;;;-145.06;100.00;60892.56;4724347;29;19920;-90
2023/07/30 11:34:00;;;;;;;;;;;;;;;-145.06;100.00;60892.56;4728864;29;19924;-93
2023/07/30 11:36:40;;;;;;;;;;;;;;;-145.06;100.00;60892.56;4725961;29;19923;-93
2023/07/30 11:39:19;;;;;;;;;;;;;;;-145.06;100.00;60892.56;4740028;29;19978;-91
2023/07/30 11:41:58;;;;;;;;;;;;;;;-145.06;100.00;60892.56;4728902;29;20672;-94
2023/07/30 11:44:38;;;;;;;;;;;;;;;-145.06;100.00;60892.56;4726816;29;19915;-92
2023/07/30 11:47:23;;;;;;;;;;;;;;;-145.06;100.00;60892.56;4699840;29;19916;-94
2023/07/30 11:50:02;;;;;;;;;;;;;;;-145.06;100.00;60892.56;4731437;29;19923;-93
2023/07/30 11:52:52;;;;;;;;;;;;;;;-145.06;100.00;60892.56;4730674;29;19916;-93
2023/07/30 11:55:37;;;;;;;;;;;;;;;-145.06;100.00;60892.56;4722099;29;19923;-92
2023/07/30 11:58:16;;;;;;;;;;;;;;;-145.06;100.00;60892.56;4730535;29;20040;-93
2023/07/30 12:00:55;;;;;;;;;;;;;;;-145.06;100.00;60892.56;4725192;29;19920;-93
2023/07/30 12:03:34;;;;;;;;;;;;;;;-145.06;100.00;60892.56;4726105;29;20263;-93
2023/07/30 12:06:13;;;;;;;;;;;;;;;-145.06;100.00;60892.56;4729198;29;20366;-93
2023/07/30 12:08:52;;;;;;;;;;;;;;;-145.06;100.00;60892.56;4719052;29;19915;-92
2023/07/30 12:11:31;;;;;;;;;;;;;;;-145.06;100.00;60892.56;4729998;29;19928;-91
2023/07/30 12:14:10;;;;;;;;;;;;;;;-145.06;100.00;60892.56;4730584;29;19947;-92
2023/07/30 12:16:49;;;;;;;;;;;;;;;-145.06;100.00;60892.56;4732731;29;19915;-94
2023/07/30 12:19:28;;;;;;;;;;;;;;;-145.06;100.00;60892.56;4720745;29;19920;-91
2023/07/30 12:22:07;;;;;;;;;;;;;;;-145.06;100.00;60892.56;4715309;29;20025;-93
2023/07/30 12:24:46;;;;;;;;;;;;;;;-145.06;100.00;60892.56;4716072;29;19915;-92
2023/07/30 12:27:25;;;;;;;;;;;;;;;-145.06;100.00;60892.56;4739285;29;20552;-91
2023/07/30 12:30:04;;;;;;;;;;;;;;;-145.06;100.00;60892.56;4721577;29;19920;-91
2023/07/30 12:32:43;;;;;;;;;;;;;;;-145.06;100.00;60892.56;4731820;29;19920;-93
2023/07/30 12:35:23;;;;;;;;;;;;;;;-145.06;100.00;60892.56;4723668;29;20367;-92
2023/07/30 12:38:01;;;;;;;;;;;;;;;-145.06;100.00;60892.56;4729985;29;19915;-93
2023/07/30 12:40:41;;;;;;;;;;;;;;;26.27;100.00;60892.56;4735736;29;19919;-93
2023/07/30 12:43:21;;;;;;;;;;;;;;;-145.06;100.00;60892.56;4729149;29;19947;-92
2023/07/30 12:45:59;;;;;;;;;;;;;;;-145.06;100.00;60892.56;4719554;29;19915;-94
2023/07/30 12:48:38;;;;;;;;;;;;;;;-145.06;100.00;60892.56;4732143;29;19919;-94
2023/07/30 12:51:17;;;;;;;;;;;;;;;-145.06;100.00;60892.56;4732976;29;19920;-93
2023/07/30 12:53:59;;;;;;;;;;;;;;;-145.06;100.00;60892.56;4729733;29;19915;-92
2023/07/30 12:56:41;;;;;;;;;;;;;;;-145.06;100.00;60892.56;4728444;29;20417;-93
2023/07/30 12:59:19;;;;;;;;;;;;;;;-145.06;100.00;60892.56;4730066;29;20481;-93
2023/07/30 13:01:58;;;;;;;;;;;;;;;-145.06;100.00;60892.56;4722445;29;20636;-94
2023/07/30 13:04:40;;;;;;;;;;;;;;;-145.06;100.00;60892.56;4715303;29;19916;-94
2023/07/30 13:07:20;;;;;;;;;;;;;;;-145.06;100.00;60892.56;4714920;29;19916;-91
2023/07/30 13:10:05;;;;;;;;;;;;;;;-145.06;100.00;60892.56;4733009;29;19920;-92
2023/07/30 13:12:44;;;;;;;;;;;;;;;-145.06;100.00;60892.56;4730802;29;20328;-91
2023/07/30 13:15:23;;;;;;;;;;;;;;;-145.06;100.00;60892.56;4739963;29;20406;-93
2023/07/30 13:18:03;;;;;;;;;;;;;;;-145.06;100.00;60892.56;4741035;29;19923;-93
2023/07/30 13:20:44;;;;;;;;;;;;;;;-145.06;100.00;60892.56;4730382;29;20004;-94
2023/07/30 13:23:25;;;;;;;;;;;;;;;-145.06;100.00;60892.56;4727471;29;19990;-94